Trenton, NJ

06:52 AM EDT em 24 de Maio de 2015 (GMT -0400)
Morris Heights | | Change Station
CLOSE
Current Station
Estação Meteorológica Particular
Location: Morrisville, PA
Altitude: 89 ft
Estações Meteorológicas Próximas

Elev 89 ft 40.22 °N, 74.78 °W | Updated 0 second ago

Céu Limpo
Céu Limpo
52.9 °F
Aparente 52.9 °F
N
1.0
Vento Variável Vento de SSO
Gusts 1.9 mph

Hoje
Máxima -- | Mínima -- °F
--% Possibilidade de Precip.
Ontem
Máxima -- | Mínima -- °F
Precip. -- pol
5:36 AM 8:16 PM
Quarto crescente, 38% visible
Pressão 30.35 pol
Visibilidade 7.0 milhas
Nuvens Céu Limpo
Ponto de Orvalho Não disponível
Humidade Não disponível
Chuva 0.00 pol
Altura de Neve Não disponível
UV 0 em vez de 12
Pólen 8.00 em vez de 12
Qualidade do Ar Não disponível
Flu Activity Sporadic
METAR KTTN 240953Z 22003KT 7SM CLR 08/06 A3037 RMK AO2 SLP278 T00780061

More Conditions Fewer Conditions

Pressão 30.35 pol
Visibilidade 7.0 milhas
Nuvens Céu Limpo
Ponto de Orvalho Não disponível
Humidade Não disponível
Chuva 0.00 pol
Altura de Neve Não disponível
UV 0 em vez de 12
Pólen 8.00 em vez de 12
Qualidade do Ar Não disponível
Flu Activity Sporadic
METAR KTTN 240953Z 22003KT 7SM CLR 08/06 A3037 RMK AO2 SLP278 T00780061

More Conditions Fewer Conditions

10-Day Weather Forecast

Almanac

Astronomia

May. 24, 2015 Nascer Pôr
Hora atual
Crepúsculo civil
Crepúsculo náutico
Crepúsculo astronómico
Lua
Comprimento da luz visível
Duração do Dia
Tomorrow will be .
, % of the Moon is Illuminated

Extremos de Hoje

situação na parte mais alta situação na parte mais baixa

Community

WunderPhotos

Upload Photos

1,823,709 fotografias inseridas!

WunderBlogs® & News

Nearby

Qualidade do Ar

  Qualidade do Ar Índice da Q.A. Poluente
Not available.

Altura da Neve

Estação altura Altitude

Actividade Sísmisca

Cidade Distância Mag. Hora & Data
Mínima magnitude apresentada é 2.5.

Temperaturas das Águas Costeiras

Local Temperatura

Stations

Estações Meteorológicas Próximas

Localização da Estação Temp. Sensação Térmica Ponto de Orvalho Humidade Vento Precip. Elev Actualizado Tipo